createdAt,value
2023-03-15T00:00:14.669Z,3.60
2023-03-15T00:05:38.862Z,3.40
2023-03-15T00:10:53.301Z,3.20
2023-03-15T00:16:08.026Z,3.10
2023-03-15T00:21:43.970Z,3.50
2023-03-15T00:27:00.132Z,4.20
2023-03-15T00:32:23.448Z,3.70
2023-03-15T00:37:25.239Z,4.10
2023-03-15T00:42:28.245Z,4.10
2023-03-15T00:48:10.454Z,4.90
2023-03-15T00:53:32.284Z,3.90
2023-03-15T00:58:34.280Z,4.80
2023-03-15T01:03:37.066Z,5.20
2023-03-15T01:08:53.968Z,5.40
2023-03-15T01:13:59.884Z,4.90
2023-03-15T01:19:01.988Z,4.10
2023-03-15T01:24:03.845Z,4.70
2023-03-15T01:29:06.470Z,4.60
2023-03-15T01:34:18.145Z,5.10
2023-03-15T01:39:20.499Z,4.40
2023-03-15T01:44:42.172Z,3.90
2023-03-15T01:50:43.808Z,4.60
2023-03-15T01:56:06.802Z,4.50
2023-03-15T02:01:16.021Z,3.40
2023-03-15T02:06:23.469Z,4.80
2023-03-15T02:11:39.356Z,4.60
2023-03-15T02:16:43.639Z,6.00
2023-03-15T02:21:51.533Z,5.20
2023-03-15T02:26:55.930Z,5.50
2023-03-15T02:31:59.899Z,5.80
2023-03-15T02:37:36.730Z,6.90
2023-03-15T02:43:08.992Z,6.10
2023-03-15T02:48:34.793Z,6.80
2023-03-15T02:53:58.697Z,6.00
2023-03-15T02:59:23.662Z,6.80
2023-03-15T03:04:27.685Z,7.30
2023-03-15T03:09:35.363Z,6.40
2023-03-15T03:15:13.365Z,5.20
2023-03-15T03:20:57.031Z,7.20
2023-03-15T03:27:08.602Z,6.70
2023-03-15T03:34:08.275Z,5.00
2023-03-15T03:39:45.982Z,7.50
2023-03-15T03:44:57.578Z,7.50
2023-03-15T03:50:05.557Z,6.00
2023-03-15T03:55:17.562Z,7.00
2023-03-15T04:05:26.594Z,7.20
2023-03-15T04:10:40.078Z,7.30
2023-03-15T04:16:36.027Z,6.80
2023-03-15T04:23:19.589Z,6.90
2023-03-15T04:30:15.874Z,7.80
2023-03-15T04:36:37.505Z,7.40
2023-03-15T04:43:51.662Z,8.00
2023-03-15T04:50:43.418Z,6.00
2023-03-15T04:57:37.114Z,5.30
2023-03-15T05:04:35.404Z,5.00
2023-03-15T05:11:38.073Z,4.70
2023-03-15T05:18:24.288Z,4.20
2023-03-15T05:25:08.238Z,4.60
2023-03-15T05:31:59.590Z,4.10
2023-03-15T05:38:35.424Z,4.50
2023-03-15T05:45:51.335Z,4.90
2023-03-15T05:52:56.627Z,4.40
2023-03-15T05:59:47.490Z,3.60
2023-03-15T06:06:06.694Z,4.40
2023-03-15T06:12:20.602Z,4.20
2023-03-15T06:18:58.831Z,4.60
2023-03-15T06:25:21.718Z,3.80
2023-03-15T06:30:42.057Z,5.00
2023-03-15T06:36:41.018Z,5.30
2023-03-15T06:42:46.197Z,4.60
2023-03-15T06:48:49.995Z,4.60
2023-03-15T06:55:17.543Z,4.40
2023-03-15T07:01:37.588Z,3.90
2023-03-15T07:08:01.543Z,4.30
2023-03-15T07:15:04.824Z,5.40
2023-03-15T07:21:40.592Z,4.40
2023-03-15T07:35:09.303Z,3.70
2023-03-15T07:42:05.731Z,4.00
2023-03-15T07:48:13.514Z,4.70
2023-03-15T07:54:26.947Z,4.60
2023-03-15T08:00:45.181Z,4.30
2023-03-15T08:07:26.190Z,4.50
2023-03-15T08:14:19.051Z,4.20
2023-03-15T08:21:21.999Z,4.80
2023-03-15T08:26:50.693Z,4.90
2023-03-15T08:32:34.229Z,5.00
2023-03-15T08:38:26.629Z,4.00
2023-03-15T08:43:57.189Z,4.50
2023-03-15T08:49:38.610Z,4.80
2023-03-15T09:01:29.916Z,3.30
2023-03-15T09:06:31.561Z,3.90
2023-03-15T09:11:33.073Z,4.20
2023-03-15T09:16:34.490Z,4.30
2023-03-15T09:21:35.922Z,3.10
2023-03-15T09:26:42.216Z,3.40
2023-03-15T09:31:43.588Z,3.10
2023-03-15T09:36:46.825Z,3.40
2023-03-15T09:41:53.208Z,3.10
2023-03-15T09:47:16.252Z,2.90
2023-03-15T09:52:47.363Z,3.50
2023-03-15T09:57:56.385Z,3.60
2023-03-15T10:03:01.743Z,3.40
2023-03-15T10:08:08.609Z,3.40
2023-03-15T10:13:12.762Z,3.70
2023-03-15T10:18:30.992Z,3.20
2023-03-15T10:23:44.238Z,3.60
2023-03-15T10:28:45.592Z,3.30
2023-03-15T10:33:48.920Z,3.80
2023-03-15T10:38:50.552Z,3.20
2023-03-15T10:44:02.582Z,2.70
2023-03-15T10:49:14.901Z,3.50
2023-03-15T10:54:19.049Z,3.30
2023-03-15T10:59:23.964Z,3.20
2023-03-15T11:04:26.882Z,3.50
2023-03-15T11:10:30.529Z,3.20
2023-03-15T11:16:57.873Z,4.00
2023-03-15T11:23:19.028Z,3.50
2023-03-15T11:29:40.071Z,3.60
2023-03-15T11:36:04.204Z,3.50
2023-03-15T11:42:31.072Z,2.90
2023-03-15T11:47:56.194Z,3.30
2023-03-15T11:53:02.944Z,3.30
2023-03-15T11:58:42.030Z,3.20
2023-03-15T12:03:44.490Z,3.70
2023-03-15T12:08:54.261Z,3.80
2023-03-15T12:13:58.572Z,3.10
2023-03-15T12:19:10.243Z,3.30
2023-03-15T12:24:26.319Z,4.10
2023-03-15T12:29:29.358Z,3.40
2023-03-15T12:34:50.448Z,4.20
2023-03-15T12:40:15.857Z,4.00
2023-03-15T12:45:17.399Z,3.30
2023-03-15T12:50:50.265Z,3.60
2023-03-15T12:55:59.492Z,3.70
2023-03-15T13:01:06.931Z,4.10
2023-03-15T13:06:13.487Z,3.50
2023-03-15T13:11:42.849Z,3.50
2023-03-15T13:17:01.904Z,3.70
2023-03-15T13:22:24.784Z,4.50
2023-03-15T13:28:25.427Z,4.00
2023-03-15T13:33:29.574Z,3.00
2023-03-15T13:38:33.347Z,4.40
2023-03-15T13:43:37.734Z,3.20
2023-03-15T13:48:43.941Z,3.50
2023-03-15T13:53:50.212Z,3.10
2023-03-15T13:58:51.773Z,3.80
2023-03-15T14:04:05.408Z,2.90
2023-03-15T14:09:11.126Z,3.40
2023-03-15T14:14:21.953Z,3.10
2023-03-15T14:20:23.058Z,3.40
2023-03-15T14:26:29.979Z,3.10
2023-03-15T14:31:51.978Z,4.00
2023-03-15T14:36:57.104Z,3.40
2023-03-15T14:41:58.507Z,3.10
2023-03-15T14:47:00.241Z,3.30
2023-03-15T14:52:04.628Z,4.20
2023-03-15T14:57:06.089Z,5.10
2023-03-15T15:02:15.660Z,3.90
2023-03-15T15:07:17.899Z,3.20
2023-03-15T15:12:19.507Z,3.40
2023-03-15T15:17:20.946Z,3.50
2023-03-15T15:22:23.332Z,3.20
2023-03-15T15:27:25.489Z,3.50
2023-03-15T15:32:26.789Z,4.00
2023-03-15T15:37:28.250Z,3.70
2023-03-15T15:42:29.662Z,4.70
2023-03-15T15:47:31.012Z,4.30
2023-03-15T15:52:32.832Z,3.60
2023-03-15T15:57:34.157Z,4.20
2023-03-15T16:02:35.681Z,3.80
2023-03-15T16:07:39.533Z,4.40
2023-03-15T16:12:41.502Z,4.80
2023-03-15T16:17:43.623Z,4.80
2023-03-15T16:22:50.453Z,4.60
2023-03-15T16:27:56.226Z,4.60
2023-03-15T16:32:57.667Z,5.00
2023-03-15T16:37:59.042Z,3.80
2023-03-15T16:43:01.586Z,4.20
2023-03-15T16:48:03.340Z,4.10
2023-03-15T16:53:07.388Z,4.70
2023-03-15T16:58:18.094Z,4.30
2023-03-15T17:03:20.675Z,4.30
2023-03-15T17:08:23.311Z,4.70
2023-03-15T17:13:28.129Z,5.30
2023-03-15T17:18:30.248Z,7.20
2023-03-15T17:23:31.755Z,6.00
2023-03-15T17:28:33.045Z,6.70
2023-03-15T17:33:34.633Z,7.70
2023-03-15T17:38:38.675Z,8.60
2023-03-15T17:43:41.677Z,8.90
2023-03-15T17:49:39.266Z,8.90
2023-03-15T17:56:15.863Z,11.50
2023-03-15T18:03:13.719Z,9.20
2023-03-15T18:10:00.749Z,8.00
2023-03-15T18:17:04.663Z,8.70
2023-03-15T18:31:41.882Z,10.00
2023-03-15T18:38:31.916Z,16.40
2023-03-15T18:45:26.906Z,18.20
2023-03-15T18:52:30.249Z,23.70
2023-03-15T18:59:29.361Z,28.00
2023-03-15T19:06:32.939Z,24.30
2023-03-15T19:13:29.108Z,29.30
2023-03-15T19:20:24.963Z,25.30
2023-03-15T19:27:32.221Z,28.10
2023-03-15T19:34:36.241Z,34.30
2023-03-15T19:41:41.731Z,38.30
2023-03-15T19:48:44.704Z,46.30
2023-03-15T19:55:50.075Z,49.40
2023-03-15T20:02:53.089Z,45.30
2023-03-15T20:09:56.106Z,47.10
2023-03-15T20:17:00.191Z,36.90
2023-03-15T20:23:45.866Z,25.10
2023-03-15T20:30:29.228Z,18.90
2023-03-15T20:37:34.823Z,13.30
2023-03-15T20:44:38.376Z,13.90
2023-03-15T20:51:43.211Z,13.50
2023-03-15T20:58:46.781Z,14.90
2023-03-15T21:05:30.288Z,15.50
2023-03-15T21:12:33.309Z,16.40
2023-03-15T21:19:36.821Z,18.30
2023-03-15T21:26:40.180Z,15.90
2023-03-15T21:33:35.797Z,14.90
2023-03-15T21:40:33.594Z,16.40
2023-03-15T21:47:14.195Z,14.50
2023-03-15T21:54:15.904Z,13.50
2023-03-15T22:01:15.627Z,13.30
2023-03-15T22:08:23.675Z,12.00
2023-03-15T22:15:26.890Z,12.90
2023-03-15T22:22:29.774Z,13.50
2023-03-15T22:29:16.450Z,15.50
2023-03-15T22:36:11.558Z,14.20
2023-03-15T22:42:50.723Z,13.40
2023-03-15T22:49:53.623Z,15.60
2023-03-15T22:56:57.296Z,15.40
2023-03-15T23:03:35.716Z,14.50
2023-03-15T23:10:41.589Z,15.60
2023-03-15T23:17:35.304Z,16.00
2023-03-15T23:24:19.141Z,17.80
2023-03-15T23:31:14.992Z,17.10
2023-03-15T23:38:11.216Z,18.50
2023-03-15T23:45:14.833Z,21.80
2023-03-15T23:52:17.704Z,21.70
2023-03-15T23:59:20.628Z,20.80
